Air Navigation Services of Czech Republic
Airport: LKNA Updated:  25.03.2017 07:06:05  UTC
 METAR LKNA 25.03. 07:00 ...
METAR LKNA 250700Z 32004KT CAVOK 03/M00 Q1028 NOSIG=
 TAF LKNA 25.03. 05:00 ...
TAF LKNA 250500Z 2506/2606 34008KT CAVOK=